createdAt,value
2023-10-20T00:02:12.056Z,8.20
2023-10-20T00:04:41.394Z,8.20
2023-10-20T00:07:11.109Z,8.20
2023-10-20T00:09:40.194Z,8.20
2023-10-20T00:12:11.668Z,8.20
2023-10-20T00:14:42.194Z,8.30
2023-10-20T00:17:11.417Z,8.30
2023-10-20T00:19:41.011Z,8.30
2023-10-20T00:22:10.185Z,8.30
2023-10-20T00:24:39.304Z,8.30
2023-10-20T00:27:08.427Z,8.20
2023-10-20T00:29:37.722Z,8.20
2023-10-20T00:32:08.877Z,8.30
2023-10-20T00:34:38.930Z,8.30
2023-10-20T00:37:08.126Z,8.40
2023-10-20T00:39:37.321Z,8.40
2023-10-20T00:42:06.601Z,8.40
2023-10-20T00:44:35.913Z,8.40
2023-10-20T00:47:05.323Z,8.40
2023-10-20T00:49:37.563Z,8.40
2023-10-20T00:52:07.984Z,8.50
2023-10-20T00:54:37.648Z,8.50
2023-10-20T00:57:08.194Z,8.40
2023-10-20T00:59:37.367Z,8.40
2023-10-20T01:02:06.661Z,8.30
2023-10-20T01:04:37.565Z,8.30
2023-10-20T01:07:06.709Z,8.30
2023-10-20T01:09:35.894Z,8.30
2023-10-20T01:12:05.801Z,8.30
2023-10-20T01:14:36.680Z,8.30
2023-10-20T01:17:06.032Z,8.20
2023-10-20T01:19:38.343Z,8.20
2023-10-20T01:22:07.464Z,8.20
2023-10-20T01:24:38.360Z,8.20
2023-10-20T01:27:07.468Z,8.20
2023-10-20T01:29:36.594Z,8.20
2023-10-20T01:32:06.147Z,8.20
2023-10-20T01:34:35.504Z,8.20
2023-10-20T01:37:04.803Z,8.20
2023-10-20T01:39:33.967Z,8.20
2023-10-20T01:42:04.515Z,8.20
2023-10-20T01:44:33.761Z,8.20
2023-10-20T01:47:03.384Z,8.20
2023-10-20T01:49:32.555Z,8.10
2023-10-20T01:52:01.616Z,8.20
2023-10-20T01:54:31.086Z,8.20
2023-10-20T01:57:00.524Z,8.20
2023-10-20T01:59:31.235Z,8.10
2023-10-20T02:02:00.510Z,8.20
2023-10-20T02:04:30.557Z,8.20
2023-10-20T02:06:59.742Z,8.30
2023-10-20T02:09:29.002Z,8.30
2023-10-20T02:11:59.859Z,8.30
2023-10-20T02:14:32.000Z,8.30
2023-10-20T02:17:00.551Z,8.20
2023-10-20T02:19:30.210Z,8.20
2023-10-20T02:22:00.932Z,8.20
2023-10-20T02:24:31.226Z,8.20
2023-10-20T02:27:00.679Z,8.20
2023-10-20T02:29:31.501Z,8.20
2023-10-20T02:32:00.817Z,8.20
2023-10-20T02:34:30.056Z,8.20
2023-10-20T02:36:59.247Z,8.20
2023-10-20T02:39:29.476Z,8.20
2023-10-20T02:41:58.963Z,8.20
2023-10-20T02:44:28.999Z,8.20
2023-10-20T02:46:59.567Z,8.20
2023-10-20T02:49:28.997Z,8.10
2023-10-20T02:51:58.296Z,8.20
2023-10-20T02:54:27.386Z,8.20
2023-10-20T02:56:58.608Z,8.20
2023-10-20T02:59:27.852Z,8.20
2023-10-20T03:01:58.480Z,8.20
2023-10-20T03:04:27.809Z,8.20
2023-10-20T03:06:57.663Z,8.20
2023-10-20T03:09:27.392Z,8.30
2023-10-20T03:11:56.452Z,8.20
2023-10-20T03:14:25.672Z,8.20
2023-10-20T03:16:54.960Z,8.20
2023-10-20T03:19:25.862Z,8.20
2023-10-20T03:21:55.073Z,8.20
2023-10-20T03:24:25.302Z,8.10
2023-10-20T03:26:54.738Z,8.10
2023-10-20T03:29:24.786Z,8.10
2023-10-20T03:31:54.673Z,8.20
2023-10-20T03:34:25.479Z,8.10
2023-10-20T03:36:54.610Z,8.10
2023-10-20T03:39:23.709Z,8.10
2023-10-20T03:41:53.087Z,8.10
2023-10-20T03:44:23.942Z,8.10
2023-10-20T03:46:58.361Z,8.10
2023-10-20T03:49:33.392Z,8.10
2023-10-20T03:52:02.606Z,8.10
2023-10-20T03:54:33.457Z,8.10
2023-10-20T03:57:02.975Z,8.10
2023-10-20T03:59:32.129Z,8.10
2023-10-20T04:02:02.952Z,8.10
2023-10-20T04:04:33.753Z,8.10
2023-10-20T04:07:03.089Z,8.20
2023-10-20T04:09:32.258Z,8.10
2023-10-20T04:12:01.386Z,8.10
2023-10-20T04:14:31.450Z,8.10
2023-10-20T04:17:00.898Z,8.10
2023-10-20T04:19:30.112Z,8.00
2023-10-20T04:22:00.589Z,8.10
2023-10-20T04:24:29.779Z,8.10
2023-10-20T04:26:58.901Z,8.10
2023-10-20T04:29:36.785Z,8.00
2023-10-20T04:32:24.147Z,8.10
2023-10-20T04:35:10.667Z,8.10
2023-10-20T04:37:58.716Z,8.10
2023-10-20T04:40:45.205Z,8.00
2023-10-20T04:43:33.901Z,8.00
2023-10-20T04:46:20.608Z,8.00
2023-10-20T04:49:07.376Z,8.00
2023-10-20T04:51:59.293Z,8.00
2023-10-20T04:54:45.789Z,8.00
2023-10-20T04:57:37.291Z,8.00
2023-10-20T05:00:21.160Z,7.80
2023-10-20T05:03:06.604Z,7.80
2023-10-20T05:05:41.498Z,7.80
2023-10-20T05:08:18.637Z,7.80
2023-10-20T05:10:51.919Z,7.70
2023-10-20T05:13:20.962Z,7.70
2023-10-20T05:15:50.184Z,7.70
2023-10-20T05:18:19.510Z,7.70
2023-10-20T05:20:48.802Z,7.60
2023-10-20T05:23:17.981Z,7.60
2023-10-20T05:25:52.351Z,7.60
2023-10-20T05:28:21.506Z,7.50
2023-10-20T05:30:50.748Z,7.40
2023-10-20T05:33:19.842Z,7.40
2023-10-20T05:35:50.101Z,7.50
2023-10-20T05:38:19.446Z,7.40
2023-10-20T05:41:00.667Z,7.40
2023-10-20T05:43:31.632Z,7.30
2023-10-20T05:46:01.015Z,7.40
2023-10-20T05:48:30.203Z,7.30
2023-10-20T05:51:00.191Z,7.40
2023-10-20T05:53:29.458Z,7.30
2023-10-20T05:56:00.288Z,7.40
2023-10-20T05:58:30.487Z,7.30
2023-10-20T06:01:06.749Z,7.40
2023-10-20T06:03:36.048Z,7.30
2023-10-20T06:06:05.830Z,7.30
2023-10-20T06:08:35.043Z,7.30
2023-10-20T06:11:07.122Z,7.30
2023-10-20T06:13:37.694Z,7.30
2023-10-20T06:16:10.410Z,7.30
2023-10-20T06:18:40.694Z,7.20
2023-10-20T06:21:14.696Z,7.20
2023-10-20T06:23:44.204Z,7.20
2023-10-20T06:26:15.020Z,7.20
2023-10-20T06:28:48.351Z,7.20
2023-10-20T06:31:38.410Z,7.20
2023-10-20T06:34:19.120Z,7.20
2023-10-20T06:36:50.021Z,7.10
2023-10-20T06:39:22.290Z,7.10
2023-10-20T06:41:53.397Z,7.20
2023-10-20T06:44:23.064Z,7.20
2023-10-20T06:46:53.980Z,7.10
2023-10-20T06:49:23.219Z,7.10
2023-10-20T06:51:52.642Z,7.10
2023-10-20T06:54:22.003Z,7.10
2023-10-20T06:56:52.746Z,7.20
2023-10-20T06:59:22.288Z,7.20
2023-10-20T07:01:52.413Z,7.10
2023-10-20T07:04:23.038Z,7.20
2023-10-20T07:06:52.638Z,7.30
2023-10-20T07:09:22.152Z,7.20
2023-10-20T07:11:53.800Z,7.20
2023-10-20T07:14:22.978Z,7.20
2023-10-20T07:16:52.347Z,7.20
2023-10-20T07:19:21.379Z,7.20
2023-10-20T07:21:51.619Z,7.20
2023-10-20T07:24:20.977Z,7.20
2023-10-20T07:26:50.835Z,7.20
2023-10-20T07:29:21.522Z,7.30
2023-10-20T07:31:51.082Z,7.30
2023-10-20T07:34:20.369Z,7.30
2023-10-20T07:36:49.695Z,7.40
2023-10-20T07:39:19.167Z,7.30
2023-10-20T07:41:49.034Z,7.30
2023-10-20T07:44:19.577Z,7.30
2023-10-20T07:46:50.477Z,7.40
2023-10-20T07:49:19.607Z,7.30
2023-10-20T07:51:49.396Z,7.30
2023-10-20T07:54:18.570Z,7.40
2023-10-20T07:56:48.727Z,7.30
2023-10-20T07:59:20.538Z,7.30
2023-10-20T08:01:51.213Z,7.30
2023-10-20T08:04:20.798Z,7.40
2023-10-20T08:06:50.608Z,7.40
2023-10-20T08:09:20.816Z,7.40
2023-10-20T08:11:50.201Z,7.40
2023-10-20T08:14:21.646Z,7.40
2023-10-20T08:16:53.524Z,7.40
2023-10-20T08:19:23.655Z,7.40
2023-10-20T08:21:53.273Z,7.40
2023-10-20T08:24:22.775Z,7.40
2023-10-20T08:26:52.158Z,7.50
2023-10-20T08:29:21.501Z,7.50
2023-10-20T08:31:52.532Z,7.50
2023-10-20T08:34:22.136Z,7.60
2023-10-20T08:36:51.808Z,7.60
2023-10-20T08:39:23.924Z,7.60
2023-10-20T08:41:53.184Z,7.60
2023-10-20T08:44:23.526Z,7.60
2023-10-20T08:46:55.262Z,7.60
2023-10-20T08:49:24.960Z,7.60
2023-10-20T08:51:56.321Z,7.60
2023-10-20T08:54:25.565Z,7.60
2023-10-20T08:56:55.355Z,7.60
2023-10-20T08:59:24.549Z,7.60
2023-10-20T09:01:56.158Z,7.60
2023-10-20T09:04:26.741Z,7.70
2023-10-20T09:06:56.491Z,7.70
2023-10-20T09:09:25.796Z,7.60
2023-10-20T09:11:55.457Z,7.60
2023-10-20T09:14:27.386Z,7.70
2023-10-20T09:17:01.034Z,7.70
2023-10-20T09:19:30.330Z,7.70
2023-10-20T09:21:59.841Z,7.60
2023-10-20T09:24:32.880Z,7.70
2023-10-20T09:27:06.250Z,7.70
2023-10-20T09:29:38.736Z,7.60
2023-10-20T09:32:09.939Z,7.70
2023-10-20T09:34:39.378Z,7.60
2023-10-20T09:37:10.408Z,7.60
2023-10-20T09:39:41.734Z,7.70
2023-10-20T09:42:15.638Z,7.60
2023-10-20T09:44:56.981Z,7.70
2023-10-20T09:47:31.455Z,7.70
2023-10-20T09:50:01.868Z,7.80
2023-10-20T09:52:31.562Z,7.80
2023-10-20T09:55:01.996Z,7.80
2023-10-20T09:57:32.051Z,7.90
2023-10-20T10:00:05.570Z,8.00
2023-10-20T10:02:36.550Z,8.00
2023-10-20T10:05:10.964Z,8.00
2023-10-20T10:07:40.392Z,8.00
2023-10-20T10:10:20.887Z,8.00
2023-10-20T10:13:00.547Z,7.90
2023-10-20T10:15:39.890Z,7.90
2023-10-20T10:18:13.184Z,7.90
2023-10-20T10:20:47.169Z,7.90
2023-10-20T10:23:18.877Z,7.90
2023-10-20T10:25:51.566Z,7.80
2023-10-20T10:28:22.573Z,7.80
2023-10-20T10:30:54.254Z,7.80
2023-10-20T10:33:26.713Z,7.80
2023-10-20T10:36:06.560Z,7.80
2023-10-20T10:38:44.759Z,7.70
2023-10-20T10:41:14.275Z,7.60
2023-10-20T10:43:43.989Z,7.70
2023-10-20T10:46:13.980Z,7.70
2023-10-20T10:48:46.812Z,7.60
2023-10-20T10:51:16.556Z,7.60
2023-10-20T10:53:46.145Z,7.60
2023-10-20T10:56:15.732Z,7.60
2023-10-20T10:58:45.969Z,7.60
2023-10-20T11:01:15.816Z,7.60
2023-10-20T11:03:46.807Z,7.60
2023-10-20T11:06:16.576Z,7.60
2023-10-20T11:08:46.459Z,7.60
2023-10-20T11:11:18.115Z,7.60
2023-10-20T11:13:47.697Z,7.50
2023-10-20T11:16:16.988Z,7.50
2023-10-20T11:18:50.069Z,7.50
2023-10-20T11:21:20.091Z,7.50
2023-10-20T11:23:53.319Z,7.50
2023-10-20T11:26:26.214Z,7.60
2023-10-20T11:28:59.620Z,7.60
2023-10-20T11:31:33.061Z,7.50
2023-10-20T11:34:05.036Z,7.50
2023-10-20T11:36:35.501Z,7.50
2023-10-20T11:39:04.884Z,7.60
2023-10-20T11:41:34.040Z,7.50
2023-10-20T11:44:03.663Z,7.50
2023-10-20T11:46:33.581Z,7.50
2023-10-20T11:49:04.969Z,7.40
2023-10-20T11:51:34.607Z,7.50
2023-10-20T11:54:04.078Z,7.40
2023-10-20T11:56:35.781Z,7.30
2023-10-20T11:59:06.941Z,7.30
2023-10-20T12:01:37.093Z,7.30
2023-10-20T12:04:10.235Z,7.30
2023-10-20T12:06:40.755Z,7.40
2023-10-20T12:09:14.940Z,7.50
2023-10-20T12:11:44.498Z,7.50
2023-10-20T12:14:15.559Z,7.40
2023-10-20T12:16:46.744Z,7.40
2023-10-20T12:19:19.764Z,7.40
2023-10-20T12:21:50.195Z,7.40
2023-10-20T12:24:19.917Z,7.30
2023-10-20T12:26:50.626Z,7.30
2023-10-20T12:29:24.122Z,7.40
2023-10-20T12:31:53.596Z,7.40
2023-10-20T12:34:24.415Z,7.40
2023-10-20T12:36:53.470Z,7.30
2023-10-20T12:39:22.796Z,7.30
2023-10-20T12:41:52.570Z,7.30
2023-10-20T12:44:21.725Z,7.40
2023-10-20T12:46:52.078Z,7.30
2023-10-20T12:49:21.616Z,7.30
2023-10-20T12:51:52.391Z,7.30
2023-10-20T12:54:21.686Z,7.20
2023-10-20T12:56:50.999Z,7.10
2023-10-20T12:59:20.902Z,7.10
2023-10-20T13:01:51.376Z,7.10
2023-10-20T13:04:20.966Z,7.10
2023-10-20T13:06:59.973Z,7.10
2023-10-20T13:09:31.779Z,7.00
2023-10-20T13:12:00.965Z,7.00
2023-10-20T13:14:30.657Z,7.10
2023-10-20T13:17:00.622Z,7.10
2023-10-20T13:19:31.327Z,7.10
2023-10-20T13:22:02.752Z,7.10
2023-10-20T13:24:33.965Z,7.00
2023-10-20T13:27:03.509Z,7.00
2023-10-20T13:29:33.560Z,7.00
2023-10-20T13:32:03.128Z,7.00
2023-10-20T13:34:32.800Z,7.00
2023-10-20T13:37:05.249Z,7.00
2023-10-20T13:39:34.735Z,7.00
2023-10-20T13:42:05.998Z,7.00
2023-10-20T13:44:35.450Z,6.90
2023-10-20T13:47:06.169Z,6.90
2023-10-20T13:49:35.854Z,6.90
2023-10-20T13:52:06.770Z,6.90
2023-10-20T13:54:36.430Z,7.00
2023-10-20T13:57:05.781Z,7.00
2023-10-20T13:59:35.367Z,6.90
2023-10-20T14:02:04.887Z,6.80
2023-10-20T14:04:34.290Z,6.80
2023-10-20T14:07:04.513Z,6.80
2023-10-20T14:09:35.288Z,6.70
2023-10-20T14:12:06.098Z,6.70
2023-10-20T14:14:35.606Z,6.70
2023-10-20T14:17:08.399Z,6.60
2023-10-20T14:19:38.018Z,6.70
2023-10-20T14:22:07.118Z,6.70
2023-10-20T14:24:37.845Z,6.70
2023-10-20T14:27:07.017Z,6.70
2023-10-20T14:29:36.664Z,6.70
2023-10-20T14:32:07.335Z,6.70
2023-10-20T14:34:36.753Z,6.70
2023-10-20T14:37:05.867Z,6.70
2023-10-20T14:39:35.858Z,6.60
2023-10-20T14:42:06.758Z,6.60
2023-10-20T14:44:35.864Z,6.60
2023-10-20T14:47:06.526Z,6.60
2023-10-20T14:49:35.938Z,6.60
2023-10-20T14:52:05.573Z,6.60
2023-10-20T14:54:34.744Z,6.60
2023-10-20T14:57:03.934Z,6.60
2023-10-20T14:59:35.024Z,6.60
2023-10-20T15:02:05.242Z,6.70
2023-10-20T15:04:35.761Z,6.70
2023-10-20T15:07:06.399Z,6.70
2023-10-20T15:09:39.350Z,6.70
2023-10-20T15:12:10.140Z,6.70
2023-10-20T15:14:40.700Z,6.80
2023-10-20T15:17:09.798Z,6.70
2023-10-20T15:19:38.841Z,6.70
2023-10-20T15:22:10.286Z,6.70
2023-10-20T15:24:39.683Z,6.70
2023-10-20T15:27:09.395Z,6.70
2023-10-20T15:29:39.932Z,6.70
2023-10-20T15:32:11.511Z,6.70
2023-10-20T15:34:40.808Z,6.70
2023-10-20T15:37:09.926Z,6.70
2023-10-20T15:39:51.014Z,6.70
2023-10-20T15:42:27.408Z,6.70
2023-10-20T15:44:58.128Z,6.80
2023-10-20T15:47:27.521Z,6.80
2023-10-20T15:49:56.865Z,6.70
2023-10-20T15:52:25.872Z,6.70
2023-10-20T15:54:56.101Z,6.70
2023-10-20T15:57:25.799Z,6.70
2023-10-20T16:00:00.020Z,6.80
2023-10-20T16:02:30.092Z,6.70
2023-10-20T16:05:00.480Z,6.70
2023-10-20T16:07:30.648Z,6.70
2023-10-20T16:10:00.254Z,6.70
2023-10-20T16:12:29.648Z,6.80
2023-10-20T16:15:00.844Z,6.70
2023-10-20T16:17:30.532Z,6.70
2023-10-20T16:20:00.079Z,6.80
2023-10-20T16:22:30.155Z,6.80
2023-10-20T16:25:00.032Z,6.80
2023-10-20T16:27:29.691Z,6.80
2023-10-20T16:30:03.886Z,6.80
2023-10-20T16:32:38.308Z,6.70
2023-10-20T16:35:09.547Z,6.80
2023-10-20T16:37:39.406Z,6.70
2023-10-20T16:40:09.702Z,6.80
2023-10-20T16:42:39.064Z,6.80
2023-10-20T16:45:12.086Z,6.80
2023-10-20T16:47:42.524Z,6.80
2023-10-20T16:50:12.628Z,6.80
2023-10-20T16:52:42.102Z,6.90
2023-10-20T16:55:12.348Z,6.80
2023-10-20T16:57:41.989Z,6.90
2023-10-20T17:00:15.540Z,6.90
2023-10-20T17:02:46.776Z,6.90
2023-10-20T17:05:17.298Z,6.90
2023-10-20T17:07:47.323Z,6.90
2023-10-20T17:10:19.890Z,6.90
2023-10-20T17:12:51.102Z,6.90
2023-10-20T17:15:23.431Z,6.90
2023-10-20T17:17:53.984Z,7.00
2023-10-20T17:20:24.272Z,6.90
2023-10-20T17:22:54.302Z,6.90
2023-10-20T17:25:26.307Z,6.90
2023-10-20T17:27:57.254Z,6.90
2023-10-20T17:30:29.897Z,6.90
2023-10-20T17:32:59.183Z,7.00
2023-10-20T17:35:29.727Z,6.90
2023-10-20T17:38:00.527Z,7.00
2023-10-20T17:40:32.010Z,7.00
2023-10-20T17:43:01.998Z,6.90
2023-10-20T17:45:34.496Z,6.90
2023-10-20T17:48:05.538Z,7.00
2023-10-20T17:50:39.777Z,7.00
2023-10-20T17:53:10.963Z,7.00
2023-10-20T17:55:46.809Z,7.00
2023-10-20T17:58:19.003Z,7.00
2023-10-20T18:00:52.342Z,7.00
2023-10-20T18:03:23.685Z,7.10
2023-10-20T18:05:55.435Z,7.00
2023-10-20T18:08:26.438Z,7.00
2023-10-20T18:10:57.798Z,7.10
2023-10-20T18:13:28.472Z,7.10
2023-10-20T18:16:01.898Z,7.10
2023-10-20T18:18:32.742Z,7.10
2023-10-20T18:21:05.379Z,7.10
2023-10-20T18:23:36.936Z,7.10
2023-10-20T18:26:09.132Z,7.10
2023-10-20T18:28:40.235Z,7.10
2023-10-20T18:31:16.556Z,7.10
2023-10-20T18:33:49.693Z,7.10
2023-10-20T18:36:21.132Z,7.20
2023-10-20T18:38:52.824Z,7.10
2023-10-20T18:41:23.850Z,7.20
2023-10-20T18:43:54.732Z,7.20
2023-10-20T18:46:28.192Z,7.20
2023-10-20T18:48:58.689Z,7.20
2023-10-20T18:51:30.701Z,7.20
2023-10-20T18:54:03.016Z,7.30
2023-10-20T18:56:34.633Z,7.30
2023-10-20T18:59:08.693Z,7.30
2023-10-20T19:01:42.564Z,7.30
2023-10-20T19:04:18.087Z,7.30
2023-10-20T19:06:51.115Z,7.30
2023-10-20T19:09:26.948Z,7.30
2023-10-20T19:12:03.554Z,7.30
2023-10-20T19:14:39.301Z,7.30
2023-10-20T19:17:12.947Z,7.40
2023-10-20T19:19:45.464Z,7.40
2023-10-20T19:22:18.262Z,7.40
2023-10-20T19:24:51.003Z,7.40
2023-10-20T19:27:23.181Z,7.40
2023-10-20T19:29:54.513Z,7.40
2023-10-20T19:32:27.054Z,7.40
2023-10-20T19:34:57.129Z,7.50
2023-10-20T19:37:28.014Z,7.50
2023-10-20T19:39:58.533Z,7.50
2023-10-20T19:42:28.240Z,7.50
2023-10-20T19:44:59.601Z,7.50
2023-10-20T19:47:31.972Z,7.60
2023-10-20T19:50:02.812Z,7.50
2023-10-20T19:52:34.880Z,7.60
2023-10-20T19:55:05.913Z,7.60
2023-10-20T19:57:37.129Z,7.60
2023-10-20T20:00:08.941Z,7.60
2023-10-20T20:02:46.742Z,7.70
2023-10-20T20:05:17.702Z,7.70
2023-10-20T20:07:46.966Z,7.70
2023-10-20T20:10:17.966Z,7.70
2023-10-20T20:12:47.756Z,7.80
2023-10-20T20:15:19.040Z,7.80
2023-10-20T20:17:51.170Z,7.80
2023-10-20T20:20:20.967Z,7.80
2023-10-20T20:22:51.224Z,7.90
2023-10-20T20:25:20.709Z,7.90
2023-10-20T20:27:50.704Z,7.80
2023-10-20T20:30:21.180Z,7.90
2023-10-20T20:32:52.410Z,7.90
2023-10-20T20:35:23.293Z,7.90
2023-10-20T20:37:52.676Z,8.00
2023-10-20T20:40:21.877Z,8.00
2023-10-20T20:42:53.435Z,8.00
2023-10-20T20:45:22.572Z,8.00
2023-10-20T20:47:53.920Z,8.00
2023-10-20T20:50:32.813Z,8.00
2023-10-20T20:53:03.675Z,8.00
2023-10-20T20:55:37.512Z,8.10
2023-10-20T20:58:06.607Z,8.10
2023-10-20T21:00:35.800Z,8.10
2023-10-20T21:03:07.228Z,8.10
2023-10-20T21:05:36.533Z,8.10
2023-10-20T21:08:06.538Z,8.20
2023-10-20T21:10:36.007Z,8.20
2023-10-20T21:13:05.504Z,8.20
2023-10-20T21:15:39.350Z,8.20
2023-10-20T21:18:10.905Z,8.20
2023-10-20T21:20:41.252Z,8.30
2023-10-20T21:23:10.386Z,8.30
2023-10-20T21:25:39.853Z,8.40
2023-10-20T21:28:09.391Z,8.30
2023-10-20T21:30:38.860Z,8.40
2023-10-20T21:33:09.938Z,8.40
2023-10-20T21:35:40.812Z,8.40
2023-10-20T21:38:10.916Z,8.50
2023-10-20T21:40:45.749Z,8.40
2023-10-20T21:43:16.148Z,8.50
2023-10-20T21:45:56.874Z,8.50
2023-10-20T21:48:28.256Z,8.50
2023-10-20T21:50:59.014Z,8.60
2023-10-20T21:53:30.889Z,8.60
2023-10-20T21:56:03.290Z,8.60
2023-10-20T21:58:32.786Z,8.60
2023-10-20T22:01:02.185Z,8.60
2023-10-20T22:03:35.376Z,8.60
2023-10-20T22:06:06.427Z,8.60
2023-10-20T22:08:35.723Z,8.70
2023-10-20T22:11:05.182Z,8.60
2023-10-20T22:13:34.760Z,8.70
2023-10-20T22:16:05.389Z,8.60
2023-10-20T22:18:36.355Z,8.70
2023-10-20T22:21:05.889Z,8.70
2023-10-20T22:23:35.460Z,8.70
2023-10-20T22:26:04.890Z,8.70
2023-10-20T22:28:34.109Z,8.70
2023-10-20T22:31:03.542Z,8.80
2023-10-20T22:33:32.814Z,8.80
2023-10-20T22:36:03.552Z,8.80
2023-10-20T22:38:32.811Z,8.80
2023-10-20T22:41:01.882Z,8.80
2023-10-20T22:43:30.991Z,8.80
2023-10-20T22:46:05.066Z,8.80
2023-10-20T22:48:34.298Z,8.80
2023-10-20T22:51:04.919Z,8.80
2023-10-20T22:53:34.928Z,8.80
2023-10-20T22:56:05.223Z,8.90
2023-10-20T22:58:34.189Z,8.90
2023-10-20T23:01:03.791Z,8.90
2023-10-20T23:03:36.032Z,8.90
2023-10-20T23:06:07.372Z,8.90
2023-10-20T23:08:36.563Z,8.90
2023-10-20T23:11:06.376Z,8.90
2023-10-20T23:13:35.450Z,8.90
2023-10-20T23:16:05.200Z,8.90
2023-10-20T23:18:34.567Z,8.90
2023-10-20T23:21:03.724Z,8.90
2023-10-20T23:23:34.350Z,8.90
2023-10-20T23:26:03.437Z,9.00
2023-10-20T23:28:32.556Z,8.90
2023-10-20T23:31:01.754Z,8.90
2023-10-20T23:33:31.048Z,8.90
2023-10-20T23:36:00.894Z,8.90
2023-10-20T23:38:30.016Z,8.90
2023-10-20T23:41:00.525Z,8.90
2023-10-20T23:43:29.578Z,9.00
2023-10-20T23:45:58.716Z,9.00
2023-10-20T23:48:27.897Z,9.00
2023-10-20T23:50:57.097Z,9.00
2023-10-20T23:53:26.213Z,9.00
2023-10-20T23:55:55.239Z,9.10
2023-10-20T23:58:25.682Z,9.10
